Time;durP1;ratioP1;P1;durP2;ratioP2;P2;SDS_P1;SDS_P2;PMS_P1;PMS_P2;Temp;Humidity;BMP_temperature;BMP_pressure;BME280_temperature;BME280_humidity;BME280_pressure;Samples;Min_cycle;Max_cycle;Signal;HPM_P1;HPM_P2
2023/08/24 00:00:27;;;;;;;2.20;1.95;;;23.20;55.90;24.90;101703.00;;;;5047222;28;20231;-79
2023/08/24 00:02:53;;;;;;;3.45;2.25;;;23.20;56.00;24.90;101698.00;;;;5042393;28;20197;-79
2023/08/24 00:05:21;;;;;;;5.72;2.80;;;23.20;56.00;24.90;101696.00;;;;5044361;28;20206;-79
2023/08/24 00:07:49;;;;;;;2.25;2.03;;;23.20;56.00;24.90;101700.00;;;;5035321;28;20203;-79
2023/08/24 00:10:17;;;;;;;4.35;1.95;;;23.20;56.00;24.90;101697.00;;;;5048200;28;20248;-79
2023/08/24 00:12:44;;;;;;;3.88;2.45;;;23.20;56.00;24.90;101700.00;;;;5043893;28;20273;-78
2023/08/24 00:15:12;;;;;;;2.75;2.15;;;23.20;56.00;24.90;101704.00;;;;5045946;28;20203;-79
2023/08/24 00:17:39;;;;;;;3.20;2.38;;;23.20;56.00;24.90;101700.00;;;;5042836;28;20578;-79
2023/08/24 00:20:10;;;;;;;3.05;2.13;;;23.20;56.10;24.80;101690.00;;;;5037096;28;20232;-79
2023/08/24 00:22:39;;;;;;;3.50;2.72;;;23.20;56.20;24.80;101689.00;;;;5046777;28;20195;-79
2023/08/24 00:25:07;;;;;;;2.50;2.30;;;23.20;56.10;24.80;101687.00;;;;5047799;28;20276;-79
2023/08/24 00:27:36;;;;;;;3.50;2.45;;;23.20;56.10;24.80;101707.00;;;;5046531;28;20198;-79
2023/08/24 00:30:07;;;;;;;2.95;2.33;;;23.20;56.20;24.80;101695.00;;;;5034742;28;20208;-79
2023/08/24 00:32:34;;;;;;;3.17;2.45;;;23.20;56.20;24.80;101693.00;;;;5037082;28;20200;-79
2023/08/24 00:35:02;;;;;;;4.85;2.50;;;23.10;56.20;24.80;101692.00;;;;5046447;28;20195;-79
2023/08/24 00:37:29;;;;;;;11.85;2.45;;;23.10;56.20;24.80;101676.00;;;;5046070;28;20576;-79
2023/08/24 00:39:56;;;;;;;3.42;2.60;;;23.10;56.20;24.80;101664.00;;;;5042245;28;20211;-79
2023/08/24 00:42:23;;;;;;;5.07;2.65;;;23.10;56.30;24.80;101663.00;;;;5042324;28;20199;-79
2023/08/24 00:44:51;;;;;;;5.15;2.58;;;23.10;56.30;24.80;101658.00;;;;5046848;28;20210;-79
2023/08/24 00:47:19;;;;;;;7.78;3.22;;;23.10;56.40;24.80;101678.00;;;;5043246;28;20215;-79
2023/08/24 00:49:47;;;;;;;2.88;2.45;;;23.10;56.30;24.80;101677.00;;;;5027748;28;20210;-79
2023/08/24 00:52:15;;;;;;;5.15;2.58;;;23.10;56.30;24.80;101678.00;;;;5037335;28;20195;-79
2023/08/24 00:54:42;;;;;;;4.38;2.92;;;23.10;56.40;24.70;101670.00;;;;5047154;28;20737;-79
2023/08/24 00:57:10;;;;;;;5.32;2.47;;;23.10;56.40;24.70;101663.00;;;;5048623;28;20198;-79
2023/08/24 00:59:37;;;;;;;6.38;2.38;;;23.00;56.40;24.70;101658.00;;;;5035551;28;20203;-79
2023/08/24 01:02:06;;;;;;;3.08;2.30;;;23.00;56.50;24.70;101665.00;;;;5048038;28;20616;-79
2023/08/24 01:04:33;;;;;;;3.13;2.53;;;23.00;56.50;24.70;101677.00;;;;5045621;28;20649;-79
2023/08/24 01:07:00;;;;;;;3.92;2.45;;;23.00;56.50;24.70;101678.00;;;;5050302;28;20188;-79
2023/08/24 01:09:27;;;;;;;3.33;2.63;;;23.00;57.20;24.70;101678.00;;;;5049348;28;20215;-78
2023/08/24 01:12:03;;;;;;;2.50;2.25;;;23.00;56.60;24.60;101682.00;;;;5051276;28;20204;-79
2023/08/24 01:14:42;;;;;;;4.20;2.90;;;23.00;56.80;24.60;101680.00;;;;5051248;28;20223;-79
2023/08/24 01:17:17;;;;;;;4.18;2.50;;;22.90;56.70;24.60;101670.00;;;;5048661;28;20203;-79
2023/08/24 01:19:46;;;;;;;3.67;2.78;;;22.90;56.70;24.60;101666.00;;;;5051230;28;20229;-79
2023/08/24 01:22:33;;;;;;;2.45;2.22;;;22.90;56.70;24.50;101657.00;;;;5050258;28;20207;-79
2023/08/24 01:25:12;;;;;;;3.47;2.47;;;22.90;56.90;24.60;101663.00;;;;5048911;28;20677;-79
2023/08/24 01:27:43;;;;;;;3.15;2.53;;;22.90;56.80;24.60;101660.00;;;;5050019;28;20192;-78
2023/08/24 01:30:11;;;;;;;3.30;2.15;;;22.90;56.80;24.60;101661.00;;;;5050434;28;20203;-79
2023/08/24 01:32:38;;;;;;;3.85;2.80;;;22.90;56.80;24.60;101660.00;;;;5049909;28;20203;-78
2023/08/24 01:35:09;;;;;;;3.50;2.72;;;22.90;56.80;24.50;101667.00;;;;5049292;28;20204;-79
2023/08/24 01:37:38;;;;;;;3.70;2.42;;;22.90;57.00;24.60;101668.00;;;;5033506;28;20212;-79
2023/08/24 01:40:09;;;;;;;6.03;2.88;;;22.90;56.90;24.60;101661.00;;;;5031289;28;21642;-79
2023/08/24 01:42:46;;;;;;;5.47;2.72;;;22.90;57.00;24.50;101658.00;;;;5041939;28;20202;-79
2023/08/24 01:45:16;;;;;;;2.72;2.53;;;22.80;57.00;24.60;101663.00;;;;5049385;28;20989;-78
2023/08/24 01:47:45;;;;;;;3.55;2.85;;;22.90;57.10;24.60;101684.00;;;;5049669;28;20199;-78
2023/08/24 01:50:12;;;;;;;3.45;3.08;;;22.80;57.10;24.60;101692.00;;;;5050906;28;20222;-78
2023/08/24 01:52:39;;;;;;;2.50;2.22;;;22.80;57.10;24.60;101682.00;;;;5050232;28;20192;-78
2023/08/24 01:55:07;;;;;;;2.78;2.22;;;22.80;57.10;24.60;101670.00;;;;5047996;28;20230;-79
2023/08/24 01:57:34;;;;;;;3.30;2.35;;;22.80;57.20;24.60;101664.00;;;;5049324;28;20207;-79
2023/08/24 02:00:05;;;;;;;4.07;2.25;;;22.80;57.20;24.60;101661.00;;;;5047913;28;20204;-79
2023/08/24 02:02:33;;;;;;;3.78;3.40;;;22.80;57.30;24.60;101660.00;;;;5050155;28;20660;-79
2023/08/24 02:05:00;;;;;;;8.73;2.53;;;22.80;57.30;24.60;101655.00;;;;5048603;28;20195;-79
2023/08/24 02:07:26;;;;;;;3.78;2.65;;;22.80;57.30;24.60;101655.00;;;;5044167;28;20195;-79
2023/08/24 02:09:53;;;;;;;3.92;2.70;;;22.80;57.30;24.60;101654.00;;;;5049684;28;20196;-79
2023/08/24 02:12:20;;;;;;;3.28;2.13;;;22.90;57.40;24.60;101650.00;;;;5048958;28;20580;-79
2023/08/24 02:14:47;;;;;;;2.60;2.35;;;22.90;57.50;24.60;101645.00;;;;5049411;28;20227;-79
2023/08/24 02:17:16;;;;;;;3.28;2.30;;;22.90;57.60;24.60;101637.00;;;;5043934;28;20188;-79
2023/08/24 02:19:43;;;;;;;3.05;1.95;;;22.90;57.60;24.60;101638.00;;;;5050024;28;20208;-79
2023/08/24 02:22:10;;;;;;;6.05;2.70;;;22.90;57.70;24.60;101642.00;;;;5049324;28;20223;-79
2023/08/24 02:24:37;;;;;;;3.40;2.47;;;22.90;57.80;24.60;101661.00;;;;5049760;28;20655;-79
2023/08/24 02:27:04;;;;;;;3.55;2.72;;;22.90;57.80;24.60;101668.00;;;;5042774;28;20199;-78
2023/08/24 02:29:31;;;;;;;3.28;2.20;;;22.90;57.80;24.60;101663.00;;;;5047867;28;20243;-78
2023/08/24 02:31:58;;;;;;;3.28;2.20;;;22.90;57.90;24.60;101662.00;;;;5047660;28;20288;-79
2023/08/24 02:34:26;;;;;;;4.40;2.58;;;22.90;58.00;24.60;101642.00;;;;5048568;28;20203;-79
2023/08/24 02:36:53;;;;;;;2.80;2.20;;;22.90;58.20;24.60;101625.00;;;;5042836;28;20206;-79
2023/08/24 02:39:20;;;;;;;3.83;3.05;;;22.90;58.30;24.60;101612.00;;;;5048520;28;20322;-79
2023/08/24 02:41:47;;;;;;;3.65;2.50;;;22.90;58.40;24.50;101581.00;;;;5049864;28;20223;-79
2023/08/24 02:44:14;;;;;;;3.67;3.15;;;22.90;58.40;24.50;101560.00;;;;5047604;28;20207;-79
2023/08/24 02:46:45;;;;;;;3.05;2.72;;;22.90;58.30;24.50;101553.00;;;;5041044;28;20251;-79
2023/08/24 02:49:12;;;;;;;4.13;2.90;;;22.90;58.40;24.50;101553.00;;;;5047769;28;20196;-79
2023/08/24 02:51:40;;;;;;;3.60;2.65;;;22.80;58.40;24.50;101551.00;;;;5047737;28;20196;-79
2023/08/24 02:54:07;;;;;;;3.00;2.60;;;22.80;58.50;24.40;101543.00;;;;5047321;28;20217;-79
2023/08/24 02:56:34;;;;;;;3.22;2.92;;;22.80;58.50;24.40;101539.00;;;;5046764;28;20192;-79
2023/08/24 02:59:01;;;;;;;3.20;2.78;;;22.80;58.50;24.30;101541.00;;;;5049795;28;20537;-79
2023/08/24 03:01:29;;;;;;;4.07;3.15;;;22.70;58.60;24.30;101534.00;;;;5037836;28;20305;-79
2023/08/24 03:03:55;;;;;;;3.22;2.92;;;22.70;58.70;24.30;101533.00;;;;5039270;28;20211;-79
2023/08/24 03:06:23;;;;;;;3.72;3.13;;;22.60;58.70;24.20;101525.00;;;;5047371;28;20199;-80
2023/08/24 03:08:52;;;;;;;5.10;3.38;;;22.60;58.80;24.20;101528.00;;;;5046950;28;20792;-78
2023/08/24 03:11:19;;;;;;;4.85;3.55;;;22.60;59.00;24.20;101524.00;;;;5044642;28;20203;-78
2023/08/24 03:13:46;;;;;;;4.45;3.70;;;22.60;59.10;24.20;101528.00;;;;5049110;28;20227;-79
2023/08/24 03:16:12;;;;;;;3.85;3.28;;;22.60;59.30;24.20;101534.00;;;;5047055;28;20207;-79
2023/08/24 03:18:40;;;;;;;4.68;3.67;;;22.50;59.30;24.20;101536.00;;;;5044489;28;20207;-79
2023/08/24 03:21:07;;;;;;;5.07;3.22;;;22.50;59.40;24.20;101534.00;;;;5044961;28;20230;-79
2023/08/24 03:23:34;;;;;;;5.35;3.88;;;22.50;59.50;24.20;101532.00;;;;5049370;28;20227;-79
2023/08/24 03:26:03;;;;;;;8.35;4.25;;;22.50;59.60;24.20;101538.00;;;;5048771;28;20204;-79
2023/08/24 03:28:30;;;;;;;4.78;3.45;;;22.50;59.60;24.20;101534.00;;;;5032932;28;20200;-79
2023/08/24 03:30:58;;;;;;;5.72;3.88;;;22.50;59.70;24.20;101525.00;;;;5035224;28;20203;-80
2023/08/24 03:33:26;;;;;;;4.97;4.00;;;22.50;59.80;24.20;101517.00;;;;5045383;28;20664;-80
2023/08/24 03:35:53;;;;;;;6.72;4.10;;;22.50;59.80;24.20;101518.00;;;;5029482;28;20246;-80
2023/08/24 03:38:20;;;;;;;6.03;4.18;;;22.50;59.90;24.20;101509.00;;;;5035072;28;20202;-80
2023/08/24 03:40:47;;;;;;;5.25;3.97;;;22.50;60.00;24.20;101511.00;;;;5047800;28;20199;-80
2023/08/24 03:43:15;;;;;;;6.22;4.55;;;22.50;60.00;24.20;101512.00;;;;5048450;28;20198;-80
2023/08/24 03:45:43;;;;;;;4.68;3.63;;;22.50;60.20;24.20;101524.00;;;;5048763;28;20199;-81
2023/08/24 03:48:10;;;;;;;4.50;3.83;;;22.50;60.20;24.20;101520.00;;;;5047150;28;20195;-80
2023/08/24 03:50:37;;;;;;;5.07;4.03;;;22.50;60.20;24.20;101520.00;;;;5049137;28;20207;-80
2023/08/24 03:53:05;;;;;;;5.40;3.90;;;22.50;60.20;24.20;101522.00;;;;5046915;28;20200;-80
2023/08/24 03:55:32;;;;;;;7.20;4.60;;;22.50;60.20;24.20;101520.00;;;;5047494;28;20223;-80
2023/08/24 03:57:59;;;;;;;4.20;3.63;;;22.60;60.30;24.20;101510.00;;;;5045478;28;20191;-80
2023/08/24 04:00:28;;;;;;;5.13;3.47;;;22.50;60.60;24.20;101505.00;;;;5042826;28;20204;-80
2023/08/24 04:02:55;;;;;;;4.55;3.88;;;22.50;60.20;24.20;101498.00;;;;5041736;28;20223;-79
2023/08/24 04:05:22;;;;;;;4.57;3.75;;;22.50;60.20;24.20;101498.00;;;;5047159;28;20200;-80
2023/08/24 04:07:49;;;;;;;4.13;3.70;;;22.50;60.30;24.20;101498.00;;;;5048611;28;20207;-80
2023/08/24 04:10:16;;;;;;;5.45;3.85;;;22.50;61.00;24.20;101509.00;;;;5048205;28;20561;-79
2023/08/24 04:12:43;;;;;;;6.13;4.38;;;22.50;60.30;24.20;101502.00;;;;5029999;28;20204;-80
2023/08/24 04:15:11;;;;;;;5.78;4.32;;;22.50;60.30;24.20;101504.00;;;;5045609;28;20206;-80
2023/08/24 04:17:39;;;;;;;8.63;4.65;;;22.50;60.40;24.20;101506.00;;;;5034127;28;20192;-81
2023/08/24 04:20:08;;;;;;;5.18;3.80;;;22.50;60.50;24.20;101500.00;;;;5048026;28;20931;-79
2023/08/24 04:22:35;;;;;;;4.10;3.70;;;22.50;61.20;24.20;101506.00;;;;5045202;28;20227;-78
2023/08/24 04:25:02;;;;;;;5.35;4.10;;;22.50;60.50;24.20;101507.00;;;;5038662;28;20203;-79
2023/08/24 04:27:29;;;;;;;6.32;4.38;;;22.50;60.50;24.20;101510.00;;;;5045924;28;20199;-79
2023/08/24 04:29:56;;;;;;;4.75;3.58;;;22.50;60.60;24.20;101505.00;;;;5043005;28;20202;-79
2023/08/24 04:32:24;;;;;;;5.28;4.05;;;22.50;60.60;24.20;101508.00;;;;5040901;28;20693;-78
2023/08/24 04:34:52;;;;;;;5.07;4.50;;;22.40;60.60;24.10;101506.00;;;;5044815;28;20211;-79
2023/08/24 04:37:19;;;;;;;5.20;4.30;;;22.50;60.70;24.20;101510.00;;;;5044019;28;20204;-79
2023/08/24 04:39:46;;;;;;;4.55;3.65;;;22.50;60.70;24.10;101510.00;;;;5044328;28;20211;-79
2023/08/24 04:42:13;;;;;;;5.20;4.20;;;22.50;60.70;24.20;101508.00;;;;5044743;28;20223;-79
2023/08/24 04:44:41;;;;;;;7.68;4.57;;;22.50;60.70;24.10;101500.00;;;;5047890;28;20191;-79
2023/08/24 04:47:08;;;;;;;6.95;3.80;;;22.40;60.70;24.10;101512.00;;;;5046654;28;20212;-80
2023/08/24 04:49:37;;;;;;;4.95;4.18;;;22.40;60.70;24.10;101507.00;;;;5047653;28;20206;-79
2023/08/24 04:52:05;;;;;;;6.68;4.15;;;22.40;60.70;24.10;101510.00;;;;5045451;28;20200;-79
2023/08/24 04:54:34;;;;;;;5.80;3.90;;;22.40;60.80;24.10;101508.00;;;;5046749;28;20746;-79
2023/08/24 04:57:01;;;;;;;5.55;4.30;;;22.40;60.80;24.10;101509.00;;;;5043396;28;20196;-79
2023/08/24 04:59:28;;;;;;;5.93;4.22;;;22.40;60.80;24.10;101503.00;;;;5048000;28;20195;-79
2023/08/24 05:01:55;;;;;;;5.43;4.32;;;22.40;60.70;24.10;101514.00;;;;5043877;28;20708;-79
2023/08/24 05:04:22;;;;;;;5.45;4.45;;;22.40;60.80;24.10;101511.00;;;;5044538;28;20211;-78
2023/08/24 05:06:49;;;;;;;5.90;4.63;;;22.40;60.90;24.10;101508.00;;;;5044705;28;20203;-79
2023/08/24 05:09:17;;;;;;;5.53;4.32;;;22.40;60.80;24.10;101514.00;;;;5047287;28;20207;-79
2023/08/24 05:11:45;;;;;;;7.53;4.15;;;22.40;60.90;24.10;101517.00;;;;5038874;28;20684;-79
2023/08/24 05:14:13;;;;;;;5.90;4.03;;;22.40;60.90;24.10;101515.00;;;;5044604;28;20241;-79
2023/08/24 05:16:40;;;;;;;5.22;4.13;;;22.40;60.90;24.10;101506.00;;;;5041919;28;20224;-79
2023/08/24 05:19:07;;;;;;;7.18;4.82;;;22.30;60.90;24.10;101494.00;;;;5045755;28;20215;-79
2023/08/24 05:21:34;;;;;;;4.60;3.72;;;22.40;61.00;24.10;101493.00;;;;5046810;28;20238;-78
2023/08/24 05:24:04;;;;;;;6.32;4.63;;;22.40;61.10;24.10;101493.00;;;;5043938;28;20211;-79
2023/08/24 05:26:32;;;;;;;9.80;4.00;;;22.40;61.10;24.10;101486.00;;;;5047188;28;20198;-79
2023/08/24 05:28:59;;;;;;;7.70;4.00;;;22.40;61.20;24.10;101484.00;;;;5043428;28;20204;-79
2023/08/24 05:31:26;;;;;;;4.57;3.58;;;22.40;61.20;24.10;101480.00;;;;5046261;28;20204;-79
2023/08/24 05:33:53;;;;;;;5.05;4.20;;;22.40;61.30;24.10;101479.00;;;;5045856;28;20605;-80
2023/08/24 05:36:20;;;;;;;6.28;4.57;;;22.40;61.40;24.20;101476.00;;;;5045270;28;20199;-77
2023/08/24 05:38:47;;;;;;;10.32;8.35;;;22.40;61.40;24.20;101477.00;;;;5047007;28;20577;-79
2023/08/24 05:41:14;;;;;;;13.50;9.73;;;22.40;61.40;24.20;101480.00;;;;5041137;28;20201;-79
2023/08/24 05:43:43;;;;;;;8.57;6.40;;;22.50;61.60;24.20;101465.00;;;;5041737;28;20203;-78
2023/08/24 05:46:10;;;;;;;6.03;5.40;;;22.50;61.60;24.30;101465.00;;;;5044108;28;20208;-78
2023/08/24 05:48:37;;;;;;;5.65;4.38;;;22.50;61.60;24.30;101461.00;;;;5049642;28;20196;-79
2023/08/24 05:51:06;;;;;;;4.47;3.92;;;22.60;61.60;24.40;101453.00;;;;5042967;28;20214;-79
2023/08/24 05:53:33;;;;;;;4.50;4.00;;;22.60;61.60;24.40;101442.00;;;;5049622;28;20204;-76
2023/08/24 05:56:00;;;;;;;5.47;4.88;;;22.60;61.60;24.40;101443.00;;;;5048515;28;20230;-79
2023/08/24 05:58:27;;;;;;;14.32;4.18;;;22.70;61.60;24.50;101437.00;;;;5051285;28;20199;-79
2023/08/24 06:00:59;;;;;;;5.57;3.85;;;22.70;61.60;24.50;101445.00;;;;5039771;28;20212;-79
2023/08/24 06:03:27;;;;;;;5.13;3.75;;;22.80;61.80;24.60;101445.00;;;;5031157;28;20228;-81
2023/08/24 06:05:54;;;;;;;6.10;3.83;;;22.80;61.60;24.60;101445.00;;;;5045732;28;20202;-80
2023/08/24 06:08:21;;;;;;;5.22;4.10;;;22.90;61.60;24.70;101447.00;;;;5050926;28;20200;-80
2023/08/24 06:10:48;;;;;;;4.43;3.70;;;22.90;61.60;24.70;101444.00;;;;5050367;28;20196;-80
2023/08/24 06:13:15;;;;;;;5.05;3.63;;;22.90;61.60;24.70;101438.00;;;;5051117;28;20231;-80
2023/08/24 06:15:43;;;;;;;4.55;4.15;;;23.00;61.70;24.80;101432.00;;;;5050311;28;20682;-80
2023/08/24 06:18:11;;;;;;;4.70;3.95;;;23.00;61.60;24.80;101426.00;;;;5050235;28;20260;-80
2023/08/24 06:20:38;;;;;;;4.70;4.25;;;23.10;61.60;24.90;101421.00;;;;5048532;28;20196;-80
2023/08/24 06:23:06;;;;;;;5.20;4.05;;;23.10;61.50;24.90;101422.00;;;;5050647;28;20249;-81
2023/08/24 06:25:33;;;;;;;5.65;3.75;;;23.20;61.60;25.00;101423.00;;;;5049929;28;20220;-80
2023/08/24 06:28:00;;;;;;;4.43;3.95;;;23.30;61.60;25.10;101423.00;;;;5049455;28;20208;-80
2023/08/24 06:30:27;;;;;;;6.07;4.70;;;23.30;61.60;25.10;101418.00;;;;5049499;28;20218;-82
2023/08/24 06:32:54;;;;;;;6.63;4.00;;;23.40;62.40;25.20;101411.00;;;;5050367;28;20675;-81
2023/08/24 06:35:23;;;;;;;5.70;4.43;;;23.40;61.50;25.20;101418.00;;;;5048127;28;20200;-81
2023/08/24 06:37:50;;;;;;;6.53;4.07;;;23.50;61.50;25.30;101414.00;;;;5049003;28;20290;-80
2023/08/24 06:40:18;;;;;;;4.82;4.05;;;23.60;61.50;25.40;101413.00;;;;5048968;28;20195;-80
2023/08/24 06:42:45;;;;;;;5.93;4.00;;;23.60;61.40;25.40;101407.00;;;;5038023;28;20235;-81
2023/08/24 06:45:12;;;;;;;6.32;4.32;;;23.70;61.40;25.50;101403.00;;;;5030794;28;20208;-81
2023/08/24 06:47:40;;;;;;;8.48;4.72;;;23.70;61.30;25.60;101397.00;;;;5033559;28;20192;-81
2023/08/24 06:50:08;;;;;;;5.65;3.88;;;23.80;61.30;25.60;101393.00;;;;5043105;28;20192;-80
2023/08/24 06:52:36;;;;;;;5.65;4.15;;;23.90;61.20;25.70;101384.00;;;;5039010;28;20195;-81
2023/08/24 06:55:04;;;;;;;5.32;4.07;;;23.90;61.20;25.70;101384.00;;;;5039380;28;21047;-80
2023/08/24 06:57:32;;;;;;;3.90;3.50;;;24.00;61.10;25.80;101388.00;;;;5038486;28;20191;-80
2023/08/24 07:00:00;;;;;;;6.18;4.43;;;24.10;61.00;25.90;101390.00;;;;5040083;28;20200;-80
2023/08/24 07:02:27;;;;;;;5.50;4.63;;;24.10;60.90;25.90;101392.00;;;;5032192;28;20226;-81
2023/08/24 07:04:57;;;;;;;4.65;4.03;;;24.20;60.90;25.90;101395.00;;;;5044629;28;20204;-81
2023/08/24 07:07:25;;;;;;;5.68;4.63;;;24.20;60.70;26.00;101392.00;;;;5040572;28;20198;-81
2023/08/24 07:09:53;;;;;;;9.35;5.10;;;24.30;60.70;26.00;101376.00;;;;5049779;28;20196;-79
2023/08/24 07:12:20;;;;;;;4.43;3.78;;;24.40;60.80;26.10;101363.00;;;;5049519;28;20368;-80
2023/08/24 07:14:47;;;;;;;4.70;3.45;;;24.40;60.80;26.20;101366.00;;;;5047791;28;20223;-80
2023/08/24 07:17:14;;;;;;;5.40;4.72;;;24.50;60.80;26.20;101365.00;;;;5034397;28;20215;-81
2023/08/24 07:19:41;;;;;;;4.90;4.25;;;24.60;60.80;26.30;101372.00;;;;5048497;28;20204;-80
2023/08/24 07:22:08;;;;;;;6.60;4.13;;;24.60;60.70;26.40;101367.00;;;;5045393;28;20226;-80
2023/08/24 07:24:38;;;;;;;6.90;4.63;;;24.70;60.70;26.40;101379.00;;;;5029523;28;20262;-81
2023/08/24 07:27:06;;;;;;;6.80;4.22;;;24.70;60.60;26.50;101384.00;;;;5028662;28;20196;-80
2023/08/24 07:29:33;;;;;;;5.80;4.40;;;24.80;60.60;26.60;101382.00;;;;5029838;28;20671;-80
2023/08/24 07:32:00;;;;;;;5.22;4.35;;;24.90;60.50;26.60;101393.00;;;;5031026;28;20200;-80
2023/08/24 07:34:28;;;;;;;4.30;3.90;;;24.90;60.30;26.70;101387.00;;;;5032128;28;20226;-80
2023/08/24 07:36:55;;;;;;;4.85;4.22;;;25.00;60.20;26.80;101389.00;;;;5045595;28;20199;-80
2023/08/24 07:39:22;;;;;;;6.40;4.07;;;25.10;60.30;26.90;101374.00;;;;5033842;28;20212;-80
2023/08/24 07:41:50;;;;;;;4.60;3.78;;;25.20;60.10;27.00;101375.00;;;;5028673;28;20690;-80
2023/08/24 07:44:18;;;;;;;6.25;4.65;;;25.30;60.10;27.00;101380.00;;;;5029188;28;20203;-80
2023/08/24 07:46:45;;;;;;;5.35;4.13;;;25.40;60.80;27.10;101368.00;;;;5045425;28;20574;-80
2023/08/24 07:49:12;;;;;;;5.72;4.10;;;25.40;60.00;27.20;101383.00;;;;5042996;28;20196;-80
2023/08/24 07:51:39;;;;;;;5.18;4.65;;;25.50;59.90;27.30;101380.00;;;;5049039;28;20231;-80
2023/08/24 07:54:07;;;;;;;6.13;4.07;;;25.60;59.70;27.40;101382.00;;;;5030080;28;20235;-80
2023/08/24 07:56:34;;;;;;;6.22;4.43;;;25.70;59.60;27.50;101379.00;;;;5047632;28;20204;-80
2023/08/24 07:59:01;;;;;;;6.53;4.47;;;25.80;59.40;27.60;101381.00;;;;5044538;28;20258;-80
2023/08/24 08:01:30;;;;;;;5.15;3.60;;;25.90;59.30;27.70;101393.00;;;;5048407;28;20651;-81
2023/08/24 08:03:57;;;;;;;8.95;5.15;;;26.00;59.30;27.80;101391.00;;;;5047600;28;20223;-80
2023/08/24 08:06:24;;;;;;;5.03;4.28;;;26.10;59.20;27.90;101395.00;;;;5039640;28;20591;-81
2023/08/24 08:08:51;;;;;;;5.15;4.65;;;26.20;59.00;28.00;101386.00;;;;5032549;28;20291;-81
2023/08/24 08:11:19;;;;;;;5.47;4.78;;;26.30;58.80;28.00;101385.00;;;;5028266;28;20299;-80
2023/08/24 08:13:46;;;;;;;6.45;4.55;;;26.40;58.50;28.10;101378.00;;;;5029981;28;20232;-80
2023/08/24 08:16:13;;;;;;;6.68;4.97;;;26.50;58.30;28.20;101372.00;;;;5042018;28;20199;-80
2023/08/24 08:18:42;;;;;;;7.28;5.03;;;26.60;58.20;28.20;101378.00;;;;5046829;28;20199;-80
2023/08/24 08:21:17;;;;;;;8.80;4.97;;;26.60;57.90;28.20;101376.00;;;;5047543;28;20199;-80
2023/08/24 08:23:44;;;;;;;13.45;5.10;;;26.70;57.70;28.30;101370.00;;;;5045819;28;20287;-80
2023/08/24 08:26:13;;;;;;;5.97;4.97;;;26.70;57.70;28.40;101377.00;;;;5044688;28;20754;-80
2023/08/24 08:28:40;;;;;;;8.60;5.35;;;26.80;57.60;28.50;101376.00;;;;5040518;28;20191;-79
2023/08/24 08:31:07;;;;;;;7.85;5.22;;;26.90;57.60;28.50;101380.00;;;;5041800;28;20215;-80
2023/08/24 08:33:34;;;;;;;8.55;5.68;;;26.90;57.50;28.60;101373.00;;;;5035334;28;20669;-80
2023/08/24 08:36:03;;;;;;;13.50;5.53;;;27.00;57.30;28.60;101361.00;;;;5033310;28;20192;-80
2023/08/24 08:38:30;;;;;;;5.13;4.57;;;27.10;57.30;28.70;101362.00;;;;5048299;28;20701;-80
2023/08/24 08:41:03;;;;;;;9.65;6.03;;;27.10;57.20;28.70;101350.00;;;;5046337;28;20200;-80
2023/08/24 08:43:31;;;;;;;6.68;4.80;;;27.20;57.20;28.80;101347.00;;;;5036219;28;20235;-80
2023/08/24 08:46:00;;;;;;;8.80;6.20;;;27.20;57.10;28.80;101331.00;;;;5027232;28;20200;-80
2023/08/24 08:48:29;;;;;;;6.20;5.10;;;27.30;57.00;28.90;101333.00;;;;5041600;28;20203;-80
2023/08/24 08:50:56;;;;;;;5.07;4.30;;;27.30;57.00;29.00;101336.00;;;;5045420;28;20266;-80
2023/08/24 08:53:25;;;;;;;5.55;4.75;;;27.40;57.00;29.00;101326.00;;;;5047751;28;20198;-80
2023/08/24 08:55:54;;;;;;;5.25;4.63;;;27.50;57.00;29.10;101309.00;;;;5045263;28;20743;-80
2023/08/24 08:58:22;;;;;;;5.68;4.60;;;27.50;57.00;29.10;101307.00;;;;5047480;28;20196;-80
2023/08/24 09:00:50;;;;;;;7.22;5.20;;;27.60;57.00;29.20;101299.00;;;;5044048;28;20402;-80
2023/08/24 09:03:19;;;;;;;7.93;5.82;;;27.60;56.90;29.20;101295.00;;;;5039445;28;20216;-80
2023/08/24 09:05:48;;;;;;;8.68;5.07;;;27.70;56.80;29.30;101284.00;;;;5034849;28;20243;-81
2023/08/24 09:08:17;;;;;;;6.85;4.80;;;27.70;56.80;29.40;101281.00;;;;5027773;28;20188;-80
2023/08/24 09:10:46;;;;;;;7.50;4.65;;;27.80;56.80;29.40;101275.00;;;;5037660;28;20191;-82
2023/08/24 09:13:13;;;;;;;6.82;5.68;;;27.90;56.70;29.50;101273.00;;;;5041938;28;20814;-81
2023/08/24 09:15:41;;;;;;;8.02;5.50;;;27.90;56.60;29.50;101265.00;;;;5044107;28;20659;-81
2023/08/24 09:18:08;;;;;;;9.63;5.45;;;28.00;56.60;29.60;101260.00;;;;5038704;28;20208;-81
2023/08/24 09:20:36;;;;;;;8.15;5.25;;;28.00;56.50;29.60;101260.00;;;;5031827;28;20200;-80
2023/08/24 09:23:04;;;;;;;7.38;5.53;;;28.10;56.60;29.70;101272.00;;;;5032871;28;20229;-80
2023/08/24 09:25:31;;;;;;;5.97;5.38;;;28.10;56.60;29.80;101272.00;;;;5049081;28;20208;-82
2023/08/24 09:28:01;;;;;;;8.73;5.97;;;28.30;56.70;29.90;101269.00;;;;5050912;28;20214;-81
2023/08/24 09:30:32;;;;;;;6.80;4.88;;;28.30;56.70;30.00;101265.00;;;;5050577;28;20667;-81
2023/08/24 09:33:03;;;;;;;10.48;6.20;;;28.40;56.80;30.10;101262.00;;;;5047851;28;22516;-82
2023/08/24 09:35:37;;;;;;;5.47;4.78;;;28.50;56.70;30.10;101261.00;;;;5042218;28;20235;-82
2023/08/24 09:38:18;;;;;;;5.28;4.68;;;28.60;56.60;30.20;101257.00;;;;5049849;28;20741;-82
2023/08/24 09:40:48;;;;;;;5.40;4.53;;;28.70;55.90;30.30;101259.00;;;;5049444;28;20208;-82
2023/08/24 09:43:16;;;;;;;6.72;4.65;;;28.80;56.20;30.40;101250.00;;;;5043107;28;20634;-81
2023/08/24 09:45:51;;;;;;;5.40;4.55;;;28.80;56.00;30.50;101242.00;;;;5050066;28;20192;-82
2023/08/24 09:48:19;;;;;;;7.75;5.63;;;28.90;55.50;30.60;101249.00;;;;5040473;28;20272;-81
2023/08/24 09:50:48;;;;;;;5.38;4.18;;;29.00;55.60;30.60;101256.00;;;;5031094;28;20196;-82
2023/08/24 09:53:20;;;;;;;12.82;3.72;;;29.00;55.70;30.60;101263.00;;;;5030785;28;20212;-81
2023/08/24 09:55:55;;;;;;;6.10;3.53;;;29.10;55.70;30.70;101252.00;;;;5036127;28;20238;-81
2023/08/24 09:58:25;;;;;;;7.47;4.10;;;29.10;55.60;30.70;101269.00;;;;5043848;28;20195;-82
2023/08/24 10:00:53;;;;;;;4.63;4.18;;;29.20;55.30;30.70;101273.00;;;;5047236;28;20739;-82
2023/08/24 10:03:22;;;;;;;5.00;3.42;;;29.20;55.10;30.70;101274.00;;;;5045434;28;20235;-82
2023/08/24 10:05:53;;;;;;;4.53;3.80;;;29.30;55.10;30.70;101281.00;;;;5039683;28;20204;-83
2023/08/24 10:08:27;;;;;;;5.80;3.72;;;29.20;54.90;30.60;101287.00;;;;5030708;28;20208;-83
2023/08/24 10:10:59;;;;;;;5.28;3.53;;;29.20;54.80;30.60;101290.00;;;;5030785;28;20754;-82
2023/08/24 10:13:39;;;;;;;3.85;3.20;;;29.20;54.90;30.50;101287.00;;;;5040609;28;20231;-83
2023/08/24 10:16:09;;;;;;;4.50;3.00;;;29.10;55.10;30.50;101287.00;;;;5050827;28;20223;-83
2023/08/24 10:18:38;;;;;;;6.10;3.53;;;29.10;55.10;30.50;101291.00;;;;5051326;28;20249;-82
2023/08/24 10:21:05;;;;;;;3.85;3.08;;;29.10;55.20;30.50;101285.00;;;;5049603;28;20226;-82
2023/08/24 10:23:35;;;;;;;4.07;3.20;;;29.00;55.20;30.40;101290.00;;;;5043624;28;20227;-82
2023/08/24 10:26:06;;;;;;;4.63;3.10;;;29.00;55.30;30.30;101283.00;;;;5030921;28;20204;-83
2023/08/24 10:28:35;;;;;;;5.05;3.55;;;28.90;55.30;30.30;101277.00;;;;5033242;28;20254;-82
2023/08/24 10:31:03;;;;;;;3.65;3.15;;;28.80;55.30;30.20;101270.00;;;;5046610;28;20196;-81
2023/08/24 10:33:34;;;;;;;4.97;2.88;;;28.80;55.50;30.20;101267.00;;;;5046334;28;20694;-82
2023/08/24 10:36:01;;;;;;;4.18;3.25;;;28.70;55.50;30.10;101263.00;;;;5037835;28;20265;-81
2023/08/24 10:38:30;;;;;;;5.18;4.35;;;28.70;55.60;30.00;101260.00;;;;5045914;28;20253;-81
2023/08/24 10:41:04;;;;;;;5.60;3.88;;;28.60;55.80;29.90;101262.00;;;;5049752;28;20199;-81
2023/08/24 10:43:37;;;;;;;5.97;4.05;;;28.50;56.10;29.90;101268.00;;;;5045394;28;20753;-82
2023/08/24 10:46:05;;;;;;;5.35;4.85;;;28.40;56.10;29.90;101263.00;;;;5044772;28;20196;-82
2023/08/24 10:49:00;;;;;;;9.95;5.43;;;28.40;56.30;29.70;101261.00;;;;5047420;28;20195;-82
2023/08/24 10:51:30;;;;;;;5.35;3.85;;;28.40;56.90;29.80;101257.00;;;;5048331;28;20200;-82